Boiceville, NY (12412)

11:14 AM EDT on September 02, 2015 (GMT -0400)
Woodland Valley | | Change Station
CLOSE
Current Station
Personal Weather Station
Location: Phoenicia, NY
Elevation: 1240 ft
Nearby Weather Stations

Elev 1240 ft 42.04 °N, 74.34 °W | Updated 5 seconds ago

Clear
Clear
78.4 °F
Feels Like 81 °F
N
0.0
Wind Variable Wind from ENE
Gusts 3.0 mph

Today
High -- | Low -- °F
--% Chance of Precip.
Yesterday
High -- | Low -- °F
Precip. -- in
6:23 AM 7:29 PM
Waning Gibbous, 79% visible
Pressure 30.00 in
Visibility 10.0 miles
Clouds Clear
Heat Index 81 °F
Dew Point 68 °F
Humidity 71%
Rainfall 0.00 in
Snow Depth Not available.
UV 7 out of 12
Pollen 9.30 out of 12
Air Quality Not available.
Flu Activity Not available.
METAR KPOU 021453Z 00000KT 10SM CLR 27/18 A3001 RMK AO2 SLP157 T02720178 56010
Pressure 30.00 in
Visibility 10.0 miles
Clouds Clear
Heat Index 81 °F
Dew Point 68 °F
Humidity 71%
Rainfall 0.00 in
Snow Depth Not available.
UV 7 out of 12
Pollen 9.30 out of 12
Air Quality Not available.
Flu Activity Not available.
METAR KPOU 021453Z 00000KT 10SM CLR 27/18 A3001 RMK AO2 SLP157 T02720178 56010

10-Day Weather Forecast

×

Almanac

Astronomy

Sep. 02, 2015 Rise Set
Actual Time
Civil Twilight
Nautical Twilight
Astronomical Twilight
Moon
Length of Visible Light
Length of Day
Tomorrow will be .
, % of the Moon is Illuminated

Today's Extremes

State Highs State Lows

Community

WunderPhotos

Upload Photos

1,851,769 photos uploaded!

WunderBlogs® & News

Nearby

Air Quality

  Air Quality AQ Index Pollutant
Not available.

Snow Depth

Station Depth Elevation

Earthquake Activity

City Distance Mag. Time & Date
Minimum magnitude displayed is 2.5.

Coastal Water Temperatures

Place Temperature

Stations

Nearby Weather Stations

Station Location Temp. Windchill Dew Point Humidity Wind Precip. Elev Updated Type